sensor_id;sensor_type;location;lat;lon;timestamp;temperature;humidity
29571;DHT22;16814;52.118;11.436;2023-05-09T00:01:23;9.40;99.90
29571;DHT22;16814;52.118;11.436;2023-05-09T00:03:49;9.30;99.90
29571;DHT22;16814;52.118;11.436;2023-05-09T00:06:17;9.20;99.90
29571;DHT22;16814;52.118;11.436;2023-05-09T00:08:45;9.30;99.90
29571;DHT22;16814;52.118;11.436;2023-05-09T00:11:12;9.20;99.90
29571;DHT22;16814;52.118;11.436;2023-05-09T00:13:38;9.30;99.90
29571;DHT22;16814;52.118;11.436;2023-05-09T00:16:05;9.00;99.90
29571;DHT22;16814;52.118;11.436;2023-05-09T00:18:32;9.10;99.90
29571;DHT22;16814;52.118;11.436;2023-05-09T00:20:59;9.10;99.90
29571;DHT22;16814;52.118;11.436;2023-05-09T00:23:36;8.80;99.90
29571;DHT22;16814;52.118;11.436;2023-05-09T00:26:03;8.70;99.90
29571;DHT22;16814;52.118;11.436;2023-05-09T00:28:32;8.60;99.90
29571;DHT22;16814;52.118;11.436;2023-05-09T00:30:59;8.70;99.90
29571;DHT22;16814;52.118;11.436;2023-05-09T00:33:25;8.70;99.90
29571;DHT22;16814;52.118;11.436;2023-05-09T00:35:54;8.50;99.90
29571;DHT22;16814;52.118;11.436;2023-05-09T00:38:24;8.30;99.90
29571;DHT22;16814;52.118;11.436;2023-05-09T00:40:52;8.20;99.90
29571;DHT22;16814;52.118;11.436;2023-05-09T00:43:19;8.30;99.90
29571;DHT22;16814;52.118;11.436;2023-05-09T00:45:48;8.20;99.90
29571;DHT22;16814;52.118;11.436;2023-05-09T00:48:15;8.10;99.90
29571;DHT22;16814;52.118;11.436;2023-05-09T00:50:42;8.10;99.90
29571;DHT22;16814;52.118;11.436;2023-05-09T00:53:12;8.20;99.90
29571;DHT22;16814;52.118;11.436;2023-05-09T00:55:41;8.20;99.90
29571;DHT22;16814;52.118;11.436;2023-05-09T00:58:08;8.20;99.90
29571;DHT22;16814;52.118;11.436;2023-05-09T01:00:35;8.00;99.90
29571;DHT22;16814;52.118;11.436;2023-05-09T01:03:03;7.90;99.90
29571;DHT22;16814;52.118;11.436;2023-05-09T01:06:02;7.80;99.90
29571;DHT22;16814;52.118;11.436;2023-05-09T01:09:43;7.90;99.90
29571;DHT22;16814;52.118;11.436;2023-05-09T01:12:12;7.60;99.90
29571;DHT22;16814;52.118;11.436;2023-05-09T01:15:00;7.50;99.90
29571;DHT22;16814;52.118;11.436;2023-05-09T01:20:41;7.50;99.90
29571;DHT22;16814;52.118;11.436;2023-05-09T01:23:41;7.50;99.90
29571;DHT22;16814;52.118;11.436;2023-05-09T01:29:47;7.50;99.90
29571;DHT22;16814;52.118;11.436;2023-05-09T01:32:18;7.50;99.90
29571;DHT22;16814;52.118;11.436;2023-05-09T01:34:50;7.50;99.90
29571;DHT22;16814;52.118;11.436;2023-05-09T01:37:30;7.60;99.90
29571;DHT22;16814;52.118;11.436;2023-05-09T01:40:05;7.60;99.90
29571;DHT22;16814;52.118;11.436;2023-05-09T01:42:40;7.60;99.90
29571;DHT22;16814;52.118;11.436;2023-05-09T01:45:11;7.60;99.90
29571;DHT22;16814;52.118;11.436;2023-05-09T01:47:40;7.60;99.90
29571;DHT22;16814;52.118;11.436;2023-05-09T01:50:09;7.50;99.90
29571;DHT22;16814;52.118;11.436;2023-05-09T01:52:38;7.60;99.90
29571;DHT22;16814;52.118;11.436;2023-05-09T01:55:07;7.50;99.90
29571;DHT22;16814;52.118;11.436;2023-05-09T01:57:36;7.50;99.90
29571;DHT22;16814;52.118;11.436;2023-05-09T02:00:26;7.40;99.90
29571;DHT22;16814;52.118;11.436;2023-05-09T02:02:52;7.50;99.90
29571;DHT22;16814;52.118;11.436;2023-05-09T02:05:19;7.30;99.90
29571;DHT22;16814;52.118;11.436;2023-05-09T02:07:49;7.30;99.90
29571;DHT22;16814;52.118;11.436;2023-05-09T02:10:15;7.30;99.90
29571;DHT22;16814;52.118;11.436;2023-05-09T02:12:42;7.30;99.90
29571;DHT22;16814;52.118;11.436;2023-05-09T02:15:08;7.30;99.90
29571;DHT22;16814;52.118;11.436;2023-05-09T02:17:36;7.30;99.90
29571;DHT22;16814;52.118;11.436;2023-05-09T02:20:05;7.20;99.90
29571;DHT22;16814;52.118;11.436;2023-05-09T02:22:35;7.00;99.90
29571;DHT22;16814;52.118;11.436;2023-05-09T02:25:05;6.90;99.90
29571;DHT22;16814;52.118;11.436;2023-05-09T02:27:34;6.80;99.90
29571;DHT22;16814;52.118;11.436;2023-05-09T02:30:08;6.90;99.90
29571;DHT22;16814;52.118;11.436;2023-05-09T02:32:47;6.80;99.90
29571;DHT22;16814;52.118;11.436;2023-05-09T02:35:16;6.80;99.90
29571;DHT22;16814;52.118;11.436;2023-05-09T02:37:44;6.90;99.90
29571;DHT22;16814;52.118;11.436;2023-05-09T02:40:11;7.00;99.90
29571;DHT22;16814;52.118;11.436;2023-05-09T02:42:39;7.00;99.90
29571;DHT22;16814;52.118;11.436;2023-05-09T02:45:07;7.10;99.90
29571;DHT22;16814;52.118;11.436;2023-05-09T02:47:36;7.00;99.90
29571;DHT22;16814;52.118;11.436;2023-05-09T02:50:04;6.80;99.90
29571;DHT22;16814;52.118;11.436;2023-05-09T02:52:33;6.90;99.90
29571;DHT22;16814;52.118;11.436;2023-05-09T02:55:00;7.00;99.90
29571;DHT22;16814;52.118;11.436;2023-05-09T02:57:28;7.00;99.90
29571;DHT22;16814;52.118;11.436;2023-05-09T02:59:57;7.10;99.90
29571;DHT22;16814;52.118;11.436;2023-05-09T03:02:24;7.10;99.90
29571;DHT22;16814;52.118;11.436;2023-05-09T03:04:51;7.00;99.90
29571;DHT22;16814;52.118;11.436;2023-05-09T03:07:18;7.00;99.90
29571;DHT22;16814;52.118;11.436;2023-05-09T03:09:45;6.90;99.90
29571;DHT22;16814;52.118;11.436;2023-05-09T03:12:16;6.70;99.90
29571;DHT22;16814;52.118;11.436;2023-05-09T03:14:42;6.70;99.90
29571;DHT22;16814;52.118;11.436;2023-05-09T03:17:10;6.50;99.90
29571;DHT22;16814;52.118;11.436;2023-05-09T03:19:36;6.60;99.90
29571;DHT22;16814;52.118;11.436;2023-05-09T03:22:03;6.60;99.90
29571;DHT22;16814;52.118;11.436;2023-05-09T03:24:29;6.70;99.90
29571;DHT22;16814;52.118;11.436;2023-05-09T03:26:56;6.70;99.90
29571;DHT22;16814;52.118;11.436;2023-05-09T03:29:31;6.70;99.90
29571;DHT22;16814;52.118;11.436;2023-05-09T03:31:58;6.70;99.90
29571;DHT22;16814;52.118;11.436;2023-05-09T03:34:24;6.60;99.90
29571;DHT22;16814;52.118;11.436;2023-05-09T03:36:53;6.60;99.90
29571;DHT22;16814;52.118;11.436;2023-05-09T03:39:20;6.70;99.90
29571;DHT22;16814;52.118;11.436;2023-05-09T03:41:45;6.80;99.90
29571;DHT22;16814;52.118;11.436;2023-05-09T03:44:13;6.80;99.90
29571;DHT22;16814;52.118;11.436;2023-05-09T03:46:41;6.90;99.90
29571;DHT22;16814;52.118;11.436;2023-05-09T03:49:08;6.80;99.90
29571;DHT22;16814;52.118;11.436;2023-05-09T03:51:34;6.80;99.90
29571;DHT22;16814;52.118;11.436;2023-05-09T03:54:03;6.80;99.90
29571;DHT22;16814;52.118;11.436;2023-05-09T03:56:29;6.80;99.90
29571;DHT22;16814;52.118;11.436;2023-05-09T03:59:04;6.80;99.90
29571;DHT22;16814;52.118;11.436;2023-05-09T04:01:32;6.90;99.90
29571;DHT22;16814;52.118;11.436;2023-05-09T04:03:58;6.90;99.90
29571;DHT22;16814;52.118;11.436;2023-05-09T04:06:26;7.00;99.90
29571;DHT22;16814;52.118;11.436;2023-05-09T04:08:55;7.00;99.90
29571;DHT22;16814;52.118;11.436;2023-05-09T04:11:22;7.10;99.90
29571;DHT22;16814;52.118;11.436;2023-05-09T04:13:50;7.00;99.90
29571;DHT22;16814;52.118;11.436;2023-05-09T04:16:17;7.10;99.90
29571;DHT22;16814;52.118;11.436;2023-05-09T04:18:52;7.20;99.90
29571;DHT22;16814;52.118;11.436;2023-05-09T04:21:18;7.20;99.90
29571;DHT22;16814;52.118;11.436;2023-05-09T04:23:46;7.20;99.90
29571;DHT22;16814;52.118;11.436;2023-05-09T04:26:12;7.10;99.90
29571;DHT22;16814;52.118;11.436;2023-05-09T04:28:40;7.10;99.90
29571;DHT22;16814;52.118;11.436;2023-05-09T04:31:05;7.10;99.90
29571;DHT22;16814;52.118;11.436;2023-05-09T04:33:33;7.10;99.90
29571;DHT22;16814;52.118;11.436;2023-05-09T04:36:01;7.20;99.90
29571;DHT22;16814;52.118;11.436;2023-05-09T04:38:29;7.20;99.90
29571;DHT22;16814;52.118;11.436;2023-05-09T04:40:56;7.30;99.90
29571;DHT22;16814;52.118;11.436;2023-05-09T04:43:23;7.20;99.90
29571;DHT22;16814;52.118;11.436;2023-05-09T04:45:53;7.30;99.90
29571;DHT22;16814;52.118;11.436;2023-05-09T04:48:18;7.40;99.90
29571;DHT22;16814;52.118;11.436;2023-05-09T04:50:49;7.60;99.90
29571;DHT22;16814;52.118;11.436;2023-05-09T04:53:16;7.60;99.90
29571;DHT22;16814;52.118;11.436;2023-05-09T04:55:44;7.70;99.90
29571;DHT22;16814;52.118;11.436;2023-05-09T04:58:11;7.80;99.90
29571;DHT22;16814;52.118;11.436;2023-05-09T05:00:39;7.80;99.90
29571;DHT22;16814;52.118;11.436;2023-05-09T05:03:05;7.90;99.90
29571;DHT22;16814;52.118;11.436;2023-05-09T05:05:35;8.00;99.90
29571;DHT22;16814;52.118;11.436;2023-05-09T05:08:03;8.10;99.90
29571;DHT22;16814;52.118;11.436;2023-05-09T05:10:30;8.30;99.90
29571;DHT22;16814;52.118;11.436;2023-05-09T05:12:56;8.90;99.90
29571;DHT22;16814;52.118;11.436;2023-05-09T05:15:22;10.10;99.90
29571;DHT22;16814;52.118;11.436;2023-05-09T05:17:50;11.60;99.90
29571;DHT22;16814;52.118;11.436;2023-05-09T05:20:17;12.80;99.90
29571;DHT22;16814;52.118;11.436;2023-05-09T05:22:44;13.70;99.90
29571;DHT22;16814;52.118;11.436;2023-05-09T05:25:11;14.30;99.90
29571;DHT22;16814;52.118;11.436;2023-05-09T05:27:37;14.70;99.90
29571;DHT22;16814;52.118;11.436;2023-05-09T05:30:05;14.80;99.90
29571;DHT22;16814;52.118;11.436;2023-05-09T05:32:34;14.90;99.90
29571;DHT22;16814;52.118;11.436;2023-05-09T05:35:00;15.00;99.90
29571;DHT22;16814;52.118;11.436;2023-05-09T05:37:28;15.00;99.90
29571;DHT22;16814;52.118;11.436;2023-05-09T05:39:53;15.10;99.90
29571;DHT22;16814;52.118;11.436;2023-05-09T05:42:20;15.40;99.90
29571;DHT22;16814;52.118;11.436;2023-05-09T05:44:45;15.10;99.90
29571;DHT22;16814;52.118;11.436;2023-05-09T05:47:21;15.20;99.90
29571;DHT22;16814;52.118;11.436;2023-05-09T05:49:50;14.90;99.90
29571;DHT22;16814;52.118;11.436;2023-05-09T05:52:19;14.50;99.90
29571;DHT22;16814;52.118;11.436;2023-05-09T05:54:44;14.70;99.90
29571;DHT22;16814;52.118;11.436;2023-05-09T05:57:11;14.60;99.90
29571;DHT22;16814;52.118;11.436;2023-05-09T05:59:36;14.90;99.90
29571;DHT22;16814;52.118;11.436;2023-05-09T06:02:03;14.70;99.90
29571;DHT22;16814;52.118;11.436;2023-05-09T06:04:32;14.90;99.90
29571;DHT22;16814;52.118;11.436;2023-05-09T06:06:59;15.00;99.90
29571;DHT22;16814;52.118;11.436;2023-05-09T06:09:24;14.40;99.90
29571;DHT22;16814;52.118;11.436;2023-05-09T06:11:52;14.50;99.90
29571;DHT22;16814;52.118;11.436;2023-05-09T06:14:19;15.00;99.90
29571;DHT22;16814;52.118;11.436;2023-05-09T06:16:44;15.50;99.90
29571;DHT22;16814;52.118;11.436;2023-05-09T06:19:11;15.70;99.90
29571;DHT22;16814;52.118;11.436;2023-05-09T06:21:37;16.10;99.90
29571;DHT22;16814;52.118;11.436;2023-05-09T06:24:04;15.90;99.90
29571;DHT22;16814;52.118;11.436;2023-05-09T06:26:30;16.00;99.90
29571;DHT22;16814;52.118;11.436;2023-05-09T06:28:58;15.40;99.90
29571;DHT22;16814;52.118;11.436;2023-05-09T06:31:26;15.00;99.90
29571;DHT22;16814;52.118;11.436;2023-05-09T06:33:54;15.00;99.90
29571;DHT22;16814;52.118;11.436;2023-05-09T06:36:22;14.90;99.90
29571;DHT22;16814;52.118;11.436;2023-05-09T06:38:48;14.60;99.90
29571;DHT22;16814;52.118;11.436;2023-05-09T06:41:19;14.40;99.90
29571;DHT22;16814;52.118;11.436;2023-05-09T06:43:46;14.40;99.90
29571;DHT22;16814;52.118;11.436;2023-05-09T06:46:20;14.50;99.90
29571;DHT22;16814;52.118;11.436;2023-05-09T06:48:47;14.80;99.90
29571;DHT22;16814;52.118;11.436;2023-05-09T06:51:15;14.90;99.90
29571;DHT22;16814;52.118;11.436;2023-05-09T06:53:43;14.90;99.90
29571;DHT22;16814;52.118;11.436;2023-05-09T06:56:11;14.90;99.90
29571;DHT22;16814;52.118;11.436;2023-05-09T06:58:37;14.80;99.90
29571;DHT22;16814;52.118;11.436;2023-05-09T07:01:09;14.70;99.90
29571;DHT22;16814;52.118;11.436;2023-05-09T07:03:36;14.50;99.90
29571;DHT22;16814;52.118;11.436;2023-05-09T07:06:02;14.40;99.90
29571;DHT22;16814;52.118;11.436;2023-05-09T07:08:29;14.30;99.90
29571;DHT22;16814;52.118;11.436;2023-05-09T07:10:56;14.50;99.90
29571;DHT22;16814;52.118;11.436;2023-05-09T07:13:27;14.80;99.90
29571;DHT22;16814;52.118;11.436;2023-05-09T07:15:54;15.00;99.90
29571;DHT22;16814;52.118;11.436;2023-05-09T07:18:23;15.30;99.90
29571;DHT22;16814;52.118;11.436;2023-05-09T07:20:49;15.40;99.90
29571;DHT22;16814;52.118;11.436;2023-05-09T07:23:17;15.40;99.90
29571;DHT22;16814;52.118;11.436;2023-05-09T07:25:45;15.30;99.90
29571;DHT22;16814;52.118;11.436;2023-05-09T07:28:12;15.20;99.90
29571;DHT22;16814;52.118;11.436;2023-05-09T07:30:41;15.30;99.90
29571;DHT22;16814;52.118;11.436;2023-05-09T07:33:11;15.50;99.90
29571;DHT22;16814;52.118;11.436;2023-05-09T07:35:38;15.40;99.90
29571;DHT22;16814;52.118;11.436;2023-05-09T07:38:05;15.50;99.90
29571;DHT22;16814;52.118;11.436;2023-05-09T07:40:32;15.70;99.90
29571;DHT22;16814;52.118;11.436;2023-05-09T07:43:06;15.80;99.90
29571;DHT22;16814;52.118;11.436;2023-05-09T07:45:34;15.80;99.90
29571;DHT22;16814;52.118;11.436;2023-05-09T07:47:59;16.00;99.90
29571;DHT22;16814;52.118;11.436;2023-05-09T07:50:25;16.30;99.90
29571;DHT22;16814;52.118;11.436;2023-05-09T07:52:52;16.20;99.90
29571;DHT22;16814;52.118;11.436;2023-05-09T07:55:19;16.50;99.90
29571;DHT22;16814;52.118;11.436;2023-05-09T07:57:45;16.50;99.90
29571;DHT22;16814;52.118;11.436;2023-05-09T08:00:12;16.60;99.90
29571;DHT22;16814;52.118;11.436;2023-05-09T08:02:40;16.50;99.90
29571;DHT22;16814;52.118;11.436;2023-05-09T08:05:06;16.80;99.90
29571;DHT22;16814;52.118;11.436;2023-05-09T08:07:32;16.90;99.90
29571;DHT22;16814;52.118;11.436;2023-05-09T08:09:57;16.80;99.90
29571;DHT22;16814;52.118;11.436;2023-05-09T08:12:23;16.80;99.90
29571;DHT22;16814;52.118;11.436;2023-05-09T08:14:49;16.80;99.90
29571;DHT22;16814;52.118;11.436;2023-05-09T08:17:17;16.80;99.90
29571;DHT22;16814;52.118;11.436;2023-05-09T08:19:45;16.80;99.90
29571;DHT22;16814;52.118;11.436;2023-05-09T08:22:21;17.00;99.90
29571;DHT22;16814;52.118;11.436;2023-05-09T08:24:51;17.20;99.90
29571;DHT22;16814;52.118;11.436;2023-05-09T08:27:17;17.20;99.90
29571;DHT22;16814;52.118;11.436;2023-05-09T08:29:43;17.10;99.80
29571;DHT22;16814;52.118;11.436;2023-05-09T08:32:11;17.20;99.40
29571;DHT22;16814;52.118;11.436;2023-05-09T08:34:39;17.40;99.90
29571;DHT22;16814;52.118;11.436;2023-05-09T08:37:04;17.60;98.80
29571;DHT22;16814;52.118;11.436;2023-05-09T08:39:31;17.80;98.30
29571;DHT22;16814;52.118;11.436;2023-05-09T08:42:02;17.50;97.40
29571;DHT22;16814;52.118;11.436;2023-05-09T08:44:30;17.60;97.40
29571;DHT22;16814;52.118;11.436;2023-05-09T08:46:59;17.80;98.30
29571;DHT22;16814;52.118;11.436;2023-05-09T08:49:28;18.00;96.70
29571;DHT22;16814;52.118;11.436;2023-05-09T08:51:56;18.20;98.00
29571;DHT22;16814;52.118;11.436;2023-05-09T08:54:23;18.40;97.10
29571;DHT22;16814;52.118;11.436;2023-05-09T08:56:50;18.60;96.50
29571;DHT22;16814;52.118;11.436;2023-05-09T08:59:19;18.90;96.50
29571;DHT22;16814;52.118;11.436;2023-05-09T09:01:47;19.20;95.10
29571;DHT22;16814;52.118;11.436;2023-05-09T09:04:15;19.80;95.80
29571;DHT22;16814;52.118;11.436;2023-05-09T09:06:44;19.90;94.40
29571;DHT22;16814;52.118;11.436;2023-05-09T09:09:12;19.90;94.30
29571;DHT22;16814;52.118;11.436;2023-05-09T09:11:42;20.00;93.60
29571;DHT22;16814;52.118;11.436;2023-05-09T09:14:12;19.90;94.30
29571;DHT22;16814;52.118;11.436;2023-05-09T09:16:46;19.50;92.40
29571;DHT22;16814;52.118;11.436;2023-05-09T09:19:17;19.40;92.20
29571;DHT22;16814;52.118;11.436;2023-05-09T09:21:47;19.40;92.60
29571;DHT22;16814;52.118;11.436;2023-05-09T09:24:22;19.60;92.10
29571;DHT22;16814;52.118;11.436;2023-05-09T09:26:53;19.80;91.60
29571;DHT22;16814;52.118;11.436;2023-05-09T09:29:19;19.70;92.20
29571;DHT22;16814;52.118;11.436;2023-05-09T09:31:51;19.90;91.70
29571;DHT22;16814;52.118;11.436;2023-05-09T09:34:24;19.80;90.80
29571;DHT22;16814;52.118;11.436;2023-05-09T09:36:58;20.00;90.80
29571;DHT22;16814;52.118;11.436;2023-05-09T09:39:26;20.00;90.40
29571;DHT22;16814;52.118;11.436;2023-05-09T09:41:52;19.80;90.30
29571;DHT22;16814;52.118;11.436;2023-05-09T09:44:20;19.80;90.20
29571;DHT22;16814;52.118;11.436;2023-05-09T09:46:53;19.70;88.20
29571;DHT22;16814;52.118;11.436;2023-05-09T09:49:23;19.60;87.50
29571;DHT22;16814;52.118;11.436;2023-05-09T09:51:57;19.80;89.00
29571;DHT22;16814;52.118;11.436;2023-05-09T09:54:32;19.90;88.60
29571;DHT22;16814;52.118;11.436;2023-05-09T09:56:58;20.00;88.40
29571;DHT22;16814;52.118;11.436;2023-05-09T09:59:25;20.00;88.90
29571;DHT22;16814;52.118;11.436;2023-05-09T10:01:59;20.10;88.00
29571;DHT22;16814;52.118;11.436;2023-05-09T10:04:35;20.20;87.00
29571;DHT22;16814;52.118;11.436;2023-05-09T10:07:06;20.30;83.90
29571;DHT22;16814;52.118;11.436;2023-05-09T10:09:34;20.00;83.30
29571;DHT22;16814;52.118;11.436;2023-05-09T10:12:05;20.10;83.40
29571;DHT22;16814;52.118;11.436;2023-05-09T10:14:35;20.40;85.50
29571;DHT22;16814;52.118;11.436;2023-05-09T10:17:04;20.70;82.50
29571;DHT22;16814;52.118;11.436;2023-05-09T10:19:33;20.60;80.50
29571;DHT22;16814;52.118;11.436;2023-05-09T10:22:09;20.70;82.70
29571;DHT22;16814;52.118;11.436;2023-05-09T10:28:01;20.40;80.00
29571;DHT22;16814;52.118;11.436;2023-05-09T10:30:35;20.40;82.10
29571;DHT22;16814;52.118;11.436;2023-05-09T10:33:07;20.70;82.50
29571;DHT22;16814;52.118;11.436;2023-05-09T10:35:44;21.00;81.60
29571;DHT22;16814;52.118;11.436;2023-05-09T10:38:11;21.00;80.60
29571;DHT22;16814;52.118;11.436;2023-05-09T10:40:47;20.50;79.10
29571;DHT22;16814;52.118;11.436;2023-05-09T10:43:17;20.50;80.10
29571;DHT22;16814;52.118;11.436;2023-05-09T10:45:44;20.40;80.10
29571;DHT22;16814;52.118;11.436;2023-05-09T10:48:18;20.40;81.30
29571;DHT22;16814;52.118;11.436;2023-05-09T10:50:44;20.40;79.90
29571;DHT22;16814;52.118;11.436;2023-05-09T10:53:12;20.40;80.70
29571;DHT22;16814;52.118;11.436;2023-05-09T10:55:53;20.50;80.70
29571;DHT22;16814;52.118;11.436;2023-05-09T10:58:30;20.70;81.00
29571;DHT22;16814;52.118;11.436;2023-05-09T11:00:59;20.70;79.70
29571;DHT22;16814;52.118;11.436;2023-05-09T11:03:27;20.80;77.80
29571;DHT22;16814;52.118;11.436;2023-05-09T11:05:56;20.80;77.80
29571;DHT22;16814;52.118;11.436;2023-05-09T11:08:30;20.80;77.30
29571;DHT22;16814;52.118;11.436;2023-05-09T11:11:05;20.60;78.00
29571;DHT22;16814;52.118;11.436;2023-05-09T11:13:39;20.70;78.70
29571;DHT22;16814;52.118;11.436;2023-05-09T11:16:11;20.90;78.30
29571;DHT22;16814;52.118;11.436;2023-05-09T11:18:51;20.90;77.00
29571;DHT22;16814;52.118;11.436;2023-05-09T11:21:17;20.80;78.90
29571;DHT22;16814;52.118;11.436;2023-05-09T11:23:51;20.80;78.60
29571;DHT22;16814;52.118;11.436;2023-05-09T11:26:22;21.00;78.60
29571;DHT22;16814;52.118;11.436;2023-05-09T11:28:54;21.10;76.90
29571;DHT22;16814;52.118;11.436;2023-05-09T11:31:22;20.70;77.00
29571;DHT22;16814;52.118;11.436;2023-05-09T11:33:51;20.70;75.90
29571;DHT22;16814;52.118;11.436;2023-05-09T11:36:36;20.80;77.50
29571;DHT22;16814;52.118;11.436;2023-05-09T11:39:13;20.90;77.90
29571;DHT22;16814;52.118;11.436;2023-05-09T11:41:50;20.90;77.40
29571;DHT22;16814;52.118;11.436;2023-05-09T11:44:24;20.90;77.60
29571;DHT22;16814;52.118;11.436;2023-05-09T11:46:52;21.00;77.20
29571;DHT22;16814;52.118;11.436;2023-05-09T11:49:22;20.90;77.00
29571;DHT22;16814;52.118;11.436;2023-05-09T11:51:49;20.50;77.00
29571;DHT22;16814;52.118;11.436;2023-05-09T11:54:15;20.60;79.50
29571;DHT22;16814;52.118;11.436;2023-05-09T11:56:42;20.60;77.30
29571;DHT22;16814;52.118;11.436;2023-05-09T11:59:10;20.50;79.30
29571;DHT22;16814;52.118;11.436;2023-05-09T12:01:38;20.30;78.80
29571;DHT22;16814;52.118;11.436;2023-05-09T12:04:07;20.30;77.20
29571;DHT22;16814;52.118;11.436;2023-05-09T12:06:47;20.20;78.80
29571;DHT22;16814;52.118;11.436;2023-05-09T12:09:17;20.20;79.00
29571;DHT22;16814;52.118;11.436;2023-05-09T12:11:48;20.10;77.60
29571;DHT22;16814;52.118;11.436;2023-05-09T12:14:28;20.00;79.00
29571;DHT22;16814;52.118;11.436;2023-05-09T12:16:56;20.00;79.60
29571;DHT22;16814;52.118;11.436;2023-05-09T12:19:25;20.10;80.60
29571;DHT22;16814;52.118;11.436;2023-05-09T12:22:05;20.00;80.20
29571;DHT22;16814;52.118;11.436;2023-05-09T12:24:35;20.00;80.00
29571;DHT22;16814;52.118;11.436;2023-05-09T12:27:04;19.90;77.20
29571;DHT22;16814;52.118;11.436;2023-05-09T12:29:30;19.90;79.00
29571;DHT22;16814;52.118;11.436;2023-05-09T12:31:58;19.90;80.50
29571;DHT22;16814;52.118;11.436;2023-05-09T12:34:24;19.80;78.30
29571;DHT22;16814;52.118;11.436;2023-05-09T12:36:52;19.70;78.40
29571;DHT22;16814;52.118;11.436;2023-05-09T12:39:20;19.70;79.10
29571;DHT22;16814;52.118;11.436;2023-05-09T12:41:51;19.70;79.20
29571;DHT22;16814;52.118;11.436;2023-05-09T12:44:24;19.70;79.70
29571;DHT22;16814;52.118;11.436;2023-05-09T12:47:01;19.80;78.10
29571;DHT22;16814;52.118;11.436;2023-05-09T12:49:29;19.70;79.00
29571;DHT22;16814;52.118;11.436;2023-05-09T12:51:57;19.70;80.40
29571;DHT22;16814;52.118;11.436;2023-05-09T12:54:26;19.80;78.20
29571;DHT22;16814;52.118;11.436;2023-05-09T12:57:00;19.90;79.50
29571;DHT22;16814;52.118;11.436;2023-05-09T12:59:32;20.00;79.30
29571;DHT22;16814;52.118;11.436;2023-05-09T13:02:01;20.10;79.50
29571;DHT22;16814;52.118;11.436;2023-05-09T13:04:30;20.30;79.50
29571;DHT22;16814;52.118;11.436;2023-05-09T13:07:00;20.20;78.60
29571;DHT22;16814;52.118;11.436;2023-05-09T13:09:29;20.30;76.70
29571;DHT22;16814;52.118;11.436;2023-05-09T13:11:55;20.30;78.30
29571;DHT22;16814;52.118;11.436;2023-05-09T13:14:24;20.30;76.80
29571;DHT22;16814;52.118;11.436;2023-05-09T13:16:54;20.20;76.00
29571;DHT22;16814;52.118;11.436;2023-05-09T13:19:23;20.20;76.00
29571;DHT22;16814;52.118;11.436;2023-05-09T13:21:50;20.20;75.90
29571;DHT22;16814;52.118;11.436;2023-05-09T13:24:20;20.10;74.00
29571;DHT22;16814;52.118;11.436;2023-05-09T13:26:45;20.00;76.50
29571;DHT22;16814;52.118;11.436;2023-05-09T13:29:13;20.00;76.90
29571;DHT22;16814;52.118;11.436;2023-05-09T13:31:40;20.00;74.40
29571;DHT22;16814;52.118;11.436;2023-05-09T13:34:10;19.90;74.00
29571;DHT22;16814;52.118;11.436;2023-05-09T13:36:37;20.20;77.80
29571;DHT22;16814;52.118;11.436;2023-05-09T13:39:06;20.00;77.40
29571;DHT22;16814;52.118;11.436;2023-05-09T13:41:33;20.10;76.90
29571;DHT22;16814;52.118;11.436;2023-05-09T13:44:01;20.20;77.60
29571;DHT22;16814;52.118;11.436;2023-05-09T13:46:37;20.30;76.80
29571;DHT22;16814;52.118;11.436;2023-05-09T13:49:03;20.30;74.60
29571;DHT22;16814;52.118;11.436;2023-05-09T13:51:30;20.30;75.00
29571;DHT22;16814;52.118;11.436;2023-05-09T13:54:01;20.20;74.20
29571;DHT22;16814;52.118;11.436;2023-05-09T13:56:35;20.20;74.00
29571;DHT22;16814;52.118;11.436;2023-05-09T13:59:02;20.30;69.90
29571;DHT22;16814;52.118;11.436;2023-05-09T14:01:28;20.10;70.10
29571;DHT22;16814;52.118;11.436;2023-05-09T14:03:55;20.10;67.90
29571;DHT22;16814;52.118;11.436;2023-05-09T14:06:23;19.80;69.30
29571;DHT22;16814;52.118;11.436;2023-05-09T14:08:51;19.80;68.90
29571;DHT22;16814;52.118;11.436;2023-05-09T14:11:19;19.80;68.30
29571;DHT22;16814;52.118;11.436;2023-05-09T14:13:52;19.80;69.00
29571;DHT22;16814;52.118;11.436;2023-05-09T14:16:26;19.90;70.10
29571;DHT22;16814;52.118;11.436;2023-05-09T14:18:52;19.90;67.60
29571;DHT22;16814;52.118;11.436;2023-05-09T14:21:19;19.80;67.80
29571;DHT22;16814;52.118;11.436;2023-05-09T14:23:45;19.90;70.10
29571;DHT22;16814;52.118;11.436;2023-05-09T14:26:12;19.90;68.50
29571;DHT22;16814;52.118;11.436;2023-05-09T14:28:38;20.00;69.00
29571;DHT22;16814;52.118;11.436;2023-05-09T14:31:06;19.90;65.90
29571;DHT22;16814;52.118;11.436;2023-05-09T14:33:33;19.80;65.00
29571;DHT22;16814;52.118;11.436;2023-05-09T14:36:01;19.80;64.00
29571;DHT22;16814;52.118;11.436;2023-05-09T14:38:32;19.70;64.30
29571;DHT22;16814;52.118;11.436;2023-05-09T14:40:58;19.50;64.50
29571;DHT22;16814;52.118;11.436;2023-05-09T14:43:28;19.50;64.50
29571;DHT22;16814;52.118;11.436;2023-05-09T14:45:55;19.40;65.40
29571;DHT22;16814;52.118;11.436;2023-05-09T14:48:22;19.50;66.20
29571;DHT22;16814;52.118;11.436;2023-05-09T14:50:49;19.50;65.00
29571;DHT22;16814;52.118;11.436;2023-05-09T14:53:28;20.00;65.80
29571;DHT22;16814;52.118;11.436;2023-05-09T14:56:01;19.60;67.30
29571;DHT22;16814;52.118;11.436;2023-05-09T14:58:29;19.60;65.00
29571;DHT22;16814;52.118;11.436;2023-05-09T15:00:58;19.60;64.60
29571;DHT22;16814;52.118;11.436;2023-05-09T15:03:26;19.60;66.70
29571;DHT22;16814;52.118;11.436;2023-05-09T15:05:53;19.60;63.20
29571;DHT22;16814;52.118;11.436;2023-05-09T15:08:20;19.60;60.60
29571;DHT22;16814;52.118;11.436;2023-05-09T15:10:46;19.60;62.10
29571;DHT22;16814;52.118;11.436;2023-05-09T15:13:13;19.60;62.70
29571;DHT22;16814;52.118;11.436;2023-05-09T15:15:40;19.60;63.50
29571;DHT22;16814;52.118;11.436;2023-05-09T15:18:14;19.70;61.80
29571;DHT22;16814;52.118;11.436;2023-05-09T15:20:43;19.60;59.20
29571;DHT22;16814;52.118;11.436;2023-05-09T15:23:10;19.50;60.90
29571;DHT22;16814;52.118;11.436;2023-05-09T15:25:41;19.50;64.00
29571;DHT22;16814;52.118;11.436;2023-05-09T15:28:07;19.30;65.20
29571;DHT22;16814;52.118;11.436;2023-05-09T15:30:36;19.30;63.00
29571;DHT22;16814;52.118;11.436;2023-05-09T15:33:06;19.40;65.30
29571;DHT22;16814;52.118;11.436;2023-05-09T15:35:33;19.30;65.70
29571;DHT22;16814;52.118;11.436;2023-05-09T15:38:02;19.40;66.20
29571;DHT22;16814;52.118;11.436;2023-05-09T15:40:29;19.20;65.80
29571;DHT22;16814;52.118;11.436;2023-05-09T15:42:57;19.10;66.50